Flight Track Log - Related Links

Times and Time Zones

All times are in EDT time to prevent confusion due to time zone crossing. See the FDX437 flight status page for this flight to view local times or setup timezone preferences in your user account.

Time Position Orientation Groundspeed Altitude Reporting Facility
EDT Latitude Longitude Course Direction KTS MPH feet Rate Location/Type
Tue 09:31:32 AM 39.6100 -83.4540 240° Southwest 18,700  Level FlightAware ADS-B
Tue 09:32:12 AM 39.5650 -83.5500 239° Southwest 21,100 2,628 Climbing FlightAware ADS-B
Tue 09:32:52 AM 39.5200 -83.6450 238° Southwest 22,900 2,472 Climbing FlightAware ADS-B
Tue 09:33:37 AM 39.4690 -83.7530 239° Southwest 24,000 2,429 Climbing FlightAware ADS-B
Tue 09:34:17 AM 39.4230 -83.8500 238° Southwest 25,800 2,691 Climbing FlightAware ADS-B
Tue 09:35:02 AM 39.3710 -83.9620 239° Southwest 27,700 2,688 Climbing FlightAware ADS-B
Tue 09:35:32 AM 39.3380 -84.0320 239° Southwest 29,300 2,775 Climbing FlightAware ADS-B
Tue 09:36:22 AM 39.2842 -84.1436 239° Southwest 487 560 31,400 2,464 Climbing Indianapolis Center
Tue 09:37:24 AM 39.2139 -84.2897 238° Southwest 477 549 33,900 -88 Climbing Indianapolis Center
Tue 09:43:37 AM 38.6510 -85.0570 238° Southwest 34,000 -164 Climbing FlightAware ADS-B
Tue 09:44:22 AM 38.5800 -85.1410 223° Southwest 34,000 -204 Level FlightAware ADS-B
Tue 09:45:02 AM 38.5210 -85.2210 227° Southwest 34,000 -210 Level FlightAware ADS-B
Tue 09:45:47 AM 38.4490 -85.3180 227° Southwest 34,000 -215 Level FlightAware ADS-B
Tue 09:46:27 AM 38.3850 -85.4030 226° Southwest 34,000 -221 Level FlightAware ADS-B
Tue 09:47:12 AM 38.3160 -85.4940 226° Southwest 34,000 -227 Level FlightAware ADS-B
Tue 09:47:52 AM 38.2530 -85.5770 226° Southwest 34,000 -234 Level FlightAware ADS-B
Tue 09:48:32 AM 38.1900 -85.6620 227° Southwest 34,000 -241 Level FlightAware ADS-B
Tue 09:49:17 AM 38.1190 -85.7560 226° Southwest 34,000 -248 Level FlightAware ADS-B
Tue 09:49:57 AM 38.0550 -85.8390 226° Southwest 34,000 -256 Level FlightAware ADS-B
Tue 09:50:42 AM 37.9850 -85.9320 226° Southwest 34,000 -264 Level FlightAware ADS-B
Tue 09:51:22 AM 37.9200 -86.0160 226° Southwest 34,000 -274 Level FlightAware ADS-B
Tue 09:52:02 AM 37.8570 -86.0980 226° Southwest 34,000 -283 Level FlightAware ADS-B
Tue 09:52:42 AM 37.7930 -86.1810 226° Southwest 34,000 -292 Level FlightAware ADS-B
Tue 09:53:27 AM 37.7210 -86.2750 226° Southwest 34,000 -303 Level FlightAware ADS-B
Tue 09:54:07 AM 37.6550 -86.3600 226° Southwest 34,000 -315 Level FlightAware ADS-B
Tue 09:54:52 AM 37.5880 -86.4470 226° Southwest 34,000 -327 Level FlightAware ADS-B
Tue 09:55:32 AM 37.5240 -86.5290 225° Southwest 34,000 -342 Level FlightAware ADS-B
Tue 09:56:12 AM 37.4580 -86.6140 226° Southwest 34,000 -356 Level FlightAware ADS-B
Tue 09:56:57 AM 37.3880 -86.7030 225° Southwest 34,000 -372 Level FlightAware ADS-B
Tue 09:57:37 AM 37.3260 -86.7830 226° Southwest 34,000 -391 Level FlightAware ADS-B
Tue 09:58:22 AM 37.2510 -86.8780 225° Southwest 34,000 -410 Level FlightAware ADS-B
Tue 09:59:02 AM 37.1910 -86.9540 225° Southwest 34,000 -433 Level FlightAware ADS-B
Tue 09:59:37 AM 37.1340 -87.0260 225° Southwest 33,700 -456 Descending FlightAware ADS-B
Tue 10:00:27 AM 37.0570 -87.1240 225° Southwest 32,900 -453 Descending FlightAware ADS-B
Tue 10:01:07 AM 36.9900 -87.2080 225° Southwest 32,200 -415 Descending FlightAware ADS-B
Tue 10:01:47 AM 36.9270 -87.2870 225° Southwest 31,500 -374 Descending FlightAware ADS-B
Tue 10:02:32 AM 36.8560 -87.3760 225° Southwest 30,800 -328 Descending FlightAware ADS-B
Tue 10:03:12 AM 36.7910 -87.4570 225° Southwest 30,100 -278 Descending FlightAware ADS-B
Tue 10:03:57 AM 36.7170 -87.5490 225° Southwest 30,000 -216 Descending FlightAware ADS-B
Tue 10:04:42 AM 36.6460 -87.6380 225° Southwest 30,000 -224 Level FlightAware ADS-B
Tue 10:05:22 AM 36.5800 -87.7190 225° Southwest 30,000 -249 Level FlightAware ADS-B
Tue 10:06:02 AM 36.5160 -87.7980 225° Southwest 30,000 -276 Level FlightAware ADS-B
Tue 10:06:47 AM 36.4410 -87.8910 225° Southwest 30,000 -309 Level FlightAware ADS-B
Tue 10:07:27 AM 36.3740 -87.9730 225° Southwest 30,000 -358 Level FlightAware ADS-B
Tue 10:08:02 AM 36.3200 -88.0390 225° Southwest 30,000 -416 Level FlightAware ADS-B
Tue 10:09:07 AM 36.2120 -88.1720 225° Southwest 30,000 -486 Level FlightAware ADS-B
Tue 10:10:47 AM 36.0580 -88.3750 227° Southwest 30,000 -703 Level FlightAware ADS-B
Tue 10:11:32 AM 36.0067 -88.4814 227° Southwest 489 563 28,300 -2,400 Descending Memphis Center
Tue 10:12:32 AM 35.9461 -88.6083 240° Southwest 489 563 25,800 -2,600 Descending Memphis Center
Tue 10:13:32 AM 35.8792 -88.7506 240° Southwest 489 563 23,100 -2,600 Descending Memphis Center
Tue 10:14:32 AM 35.8161 -88.8875 240° Southwest 482 555 20,600 -2,600 Descending Memphis Center
Tue 10:15:32 AM 35.7531 -89.0167 239° Southwest 465 535 17,900 -2,200 Descending Memphis Center
Tue 10:16:32 AM 35.6814 -89.1353 233° Southwest 439 505 16,200 -1,950 Descending Memphis Center
Tue 10:17:32 AM 35.6114 -89.2283 227° Southwest 384 442 14,000 -1,600 Descending Memphis Center
Tue 10:18:32 AM 35.5392 -89.3211 226° Southwest 371 427 13,000 -1,000 Descending Memphis Center
Tue 10:19:32 AM 35.4750 -89.4036 226° Southwest 348 400 12,000 -1,150 Descending Memphis Center
Tue 10:20:32 AM 35.4067 -89.4681 218° Southwest 321 369 10,700 -1,550 Descending Memphis Center
Tue 10:21:32 AM 35.3444 -89.5169 213° Southwest 303 349 8,900 -1,700 Descending Memphis Center
Tue 10:22:32 AM 35.2739 -89.5711 212° Southwest 298 343 7,300 -1,600 Descending Memphis Center
Tue 10:23:32 AM 35.2033 -89.6228 211° Southwest 298 343 5,700 -1,450 Descending Memphis Center
Tue 10:24:32 AM 35.1369 -89.6714 211° Southwest 298 343 4,400 -1,000 Descending Memphis Center
Tue 10:25:32 AM 35.0786 -89.7150 211° Southwest 266 306 3,700 -650 Descending Memphis Center
Tue 10:26:32 AM 35.0561 -89.7686 243° Southwest 203 234 3,100 -700 Descending Memphis Center
Tue 10:27:32 AM 35.0564 -89.8294 270° West 178 205 2,300 -906 Descending Memphis Center
Tue 10:28:18 AM 35.0500 -89.8833 262° West 176 203 1,500 -875 Descending KMEM
Tue 10:29:08 AM 35.0500 -89.9167 270° West 130 150 900 6,959 Descending KMEM
Tue 10:31:32 AM 35.0592 -90.0450 275° West 156 180 24,000 9,625 Climbing Memphis Center
Tue 10:33:00 AM 35.0424 -89.9767 107° East  Level Estimated
Tue 10:40:00 AM 35.0424 -89.9767 141° Southeast  Level Estimated
Tue 10:41:00 AM 35.0424 -89.9767 141° Southeast  Level Estimated
Tue 10:42:00 AM 35.0424 -89.9767 141° Southeast  Level Estimated
Tue 10:43:00 AM 35.0424 -89.9767 141° Southeast  Level Estimated
Tue 10:44:00 AM 35.0424 -89.9767 141° Southeast  Level Estimated
Tue 10:45:00 AM 35.0424 -89.9767 141° Southeast  Level Estimated
Tue 10:46:00 AM 35.0424 -89.9767 141° Southeast  Level Estimated
Tue 10:47:00 AM 35.0424 -89.9767 141° Southeast  Level Estimated
Tue 10:48:00 AM 35.0424 -89.9767 141° Southeast  Level Estimated
Tue 10:49:00 AM 35.0424 -89.9767 141° Southeast  Level Estimated
Tue 10:50:00 AM 35.0424 -89.9767 141° Southeast  Level Estimated
Tue 10:51:00 AM 35.0424 -89.9767 141° Southeast  Level Estimated
Tue 10:52:00 AM 35.0424 -89.9767 141° Southeast  Level Estimated

Login

Don't have an account? Register now (free) for customized features, flight alerts, and more!